createdAt,value
2022-08-04T00:01:02.905Z,7.07
2022-08-04T00:02:11.924Z,7.00
2022-08-04T00:03:21.513Z,7.78
2022-08-04T00:04:33.981Z,7.28
2022-08-04T00:05:47.518Z,7.05
2022-08-04T00:07:01.042Z,7.00
2022-08-04T00:08:12.015Z,6.72
2022-08-04T00:09:23.373Z,7.05
2022-08-04T00:10:28.415Z,7.13
2022-08-04T00:11:34.500Z,7.78
2022-08-04T00:12:42.291Z,7.43
2022-08-04T00:14:03.306Z,7.13
2022-08-04T00:15:10.403Z,7.55
2022-08-04T00:16:19.029Z,7.22
2022-08-04T00:17:24.403Z,7.65
2022-08-04T00:18:35.941Z,7.63
2022-08-04T00:19:41.630Z,7.50
2022-08-04T00:20:45.761Z,7.22
2022-08-04T00:21:52.346Z,6.93
2022-08-04T00:22:55.771Z,6.90
2022-08-04T00:24:11.023Z,7.10
2022-08-04T00:25:16.948Z,7.30
2022-08-04T00:26:21.664Z,7.20
2022-08-04T00:27:25.388Z,7.43
2022-08-04T00:28:28.560Z,7.07
2022-08-04T00:29:33.520Z,7.45
2022-08-04T00:30:35.967Z,7.35
2022-08-04T00:31:56.343Z,7.00
2022-08-04T00:33:01.695Z,7.03
2022-08-04T00:34:06.137Z,7.15
2022-08-04T00:35:10.935Z,7.15
2022-08-04T00:36:14.959Z,7.22
2022-08-04T00:37:22.575Z,7.25
2022-08-04T00:38:30.294Z,7.15
2022-08-04T00:39:33.584Z,6.63
2022-08-04T00:40:49.065Z,6.85
2022-08-04T00:42:19.665Z,6.95
2022-08-04T00:43:30.624Z,7.13
2022-08-04T00:44:45.760Z,7.10
2022-08-04T00:46:19.877Z,6.90
2022-08-04T00:47:40.519Z,6.75
2022-08-04T00:49:04.280Z,6.90
2022-08-04T00:50:11.482Z,6.53
2022-08-04T00:51:27.053Z,7.10
2022-08-04T00:52:54.536Z,7.15
2022-08-04T00:54:07.396Z,6.95
2022-08-04T00:55:43.284Z,7.03
2022-08-04T00:57:04.677Z,6.30
2022-08-04T00:58:35.797Z,6.70
2022-08-04T01:00:04.944Z,7.63
2022-08-04T01:01:15.695Z,6.15
2022-08-04T01:02:25.707Z,6.70
2022-08-04T01:03:44.094Z,5.95
2022-08-04T01:04:56.450Z,5.95
2022-08-04T01:06:07.423Z,5.90
2022-08-04T01:07:24.897Z,5.70
2022-08-04T01:08:56.475Z,5.65
2022-08-04T01:10:07.734Z,6.25
2022-08-04T01:11:25.556Z,5.75
2022-08-04T01:12:52.314Z,6.55
2022-08-04T01:14:10.588Z,5.82
2022-08-04T01:15:22.095Z,5.57
2022-08-04T01:16:27.609Z,5.72
2022-08-04T01:17:43.261Z,6.13
2022-08-04T01:18:55.716Z,5.50
2022-08-04T01:20:05.531Z,5.38
2022-08-04T01:21:32.119Z,5.45
2022-08-04T01:23:10.628Z,5.50
2022-08-04T01:24:40.641Z,5.38
2022-08-04T01:26:42.345Z,5.40
2022-08-04T01:28:04.763Z,5.35
2022-08-04T01:29:14.209Z,6.15
2022-08-04T01:30:18.554Z,5.95
2022-08-04T01:31:26.410Z,4.65
2022-08-04T01:32:37.960Z,5.15
2022-08-04T01:34:03.986Z,5.40
2022-08-04T01:35:46.590Z,5.22
2022-08-04T01:36:58.113Z,5.43
2022-08-04T01:38:20.090Z,5.15
2022-08-04T01:39:41.036Z,5.30
2022-08-04T01:40:45.641Z,4.93
2022-08-04T01:41:57.791Z,5.40
2022-08-04T01:43:03.109Z,4.90
2022-08-04T01:44:07.057Z,5.30
2022-08-04T01:45:14.909Z,4.88
2022-08-04T01:46:18.014Z,5.38
2022-08-04T01:47:22.906Z,5.28
2022-08-04T01:48:27.758Z,5.88
2022-08-04T01:49:32.110Z,5.28
2022-08-04T01:50:45.826Z,5.40
2022-08-04T01:51:56.401Z,4.72
2022-08-04T01:53:00.334Z,5.28
2022-08-04T01:54:02.637Z,5.10
2022-08-04T01:55:10.450Z,5.38
2022-08-04T01:56:13.050Z,5.32
2022-08-04T01:57:38.637Z,5.22
2022-08-04T01:58:42.833Z,4.63
2022-08-04T01:59:47.868Z,4.97
2022-08-04T02:00:59.917Z,4.40
2022-08-04T02:02:02.430Z,4.22
2022-08-04T02:03:05.904Z,4.88
2022-08-04T02:04:18.796Z,5.40
2022-08-04T02:06:03.889Z,5.22
2022-08-04T02:07:11.719Z,4.55
2022-08-04T02:08:32.747Z,4.22
2022-08-04T02:09:55.324Z,5.47
2022-08-04T02:11:11.368Z,4.97
2022-08-04T02:12:36.273Z,4.38
2022-08-04T02:13:49.544Z,4.80
2022-08-04T02:14:59.130Z,4.82
2022-08-04T02:16:14.553Z,4.63
2022-08-04T02:17:29.802Z,5.22
2022-08-04T02:18:44.841Z,5.00
2022-08-04T02:20:01.645Z,5.53
2022-08-04T02:21:06.571Z,4.93
2022-08-04T02:22:11.593Z,5.07
2022-08-04T02:23:17.233Z,5.00
2022-08-04T02:24:24.365Z,5.15
2022-08-04T02:25:30.067Z,4.93
2022-08-04T02:26:34.635Z,4.90
2022-08-04T02:28:00.578Z,5.40
2022-08-04T02:29:12.629Z,5.35
2022-08-04T02:30:14.836Z,5.57
2022-08-04T02:31:31.942Z,5.30
2022-08-04T02:32:39.910Z,5.70
2022-08-04T02:33:45.533Z,5.35
2022-08-04T02:34:53.383Z,5.40
2022-08-04T02:36:02.217Z,5.05
2022-08-04T02:37:07.219Z,4.97
2022-08-04T02:38:25.675Z,5.28
2022-08-04T02:39:48.382Z,4.45
2022-08-04T02:40:54.120Z,4.60
2022-08-04T02:42:01.119Z,4.57
2022-08-04T02:43:04.448Z,4.65
2022-08-04T02:44:10.106Z,4.80
2022-08-04T02:45:12.877Z,4.63
2022-08-04T02:46:18.660Z,4.50
2022-08-04T02:47:22.653Z,4.97
2022-08-04T02:48:31.341Z,4.97
2022-08-04T02:49:37.013Z,4.60
2022-08-04T02:50:45.908Z,4.90
2022-08-04T02:51:52.877Z,4.72
2022-08-04T02:52:57.978Z,4.88
2022-08-04T02:54:04.082Z,4.65
2022-08-04T02:55:10.999Z,4.72
2022-08-04T02:56:19.952Z,4.50
2022-08-04T02:57:25.467Z,4.95
2022-08-04T02:58:34.476Z,4.63
2022-08-04T02:59:53.601Z,4.55
2022-08-04T03:00:55.916Z,4.50
2022-08-04T03:01:59.168Z,5.07
2022-08-04T03:03:21.297Z,4.70
2022-08-04T03:04:36.650Z,4.57
2022-08-04T03:06:00.992Z,4.80
2022-08-04T03:07:37.356Z,5.03
2022-08-04T03:09:24.495Z,4.97
2022-08-04T03:11:01.067Z,4.05
2022-08-04T03:12:27.053Z,4.32
2022-08-04T03:13:41.704Z,4.38
2022-08-04T03:15:23.864Z,4.90
2022-08-04T03:17:04.060Z,4.60
2022-08-04T03:18:47.011Z,4.38
2022-08-04T03:20:23.935Z,4.05
2022-08-04T03:21:49.427Z,3.92
2022-08-04T03:23:23.789Z,4.38
2022-08-04T03:24:54.743Z,4.32
2022-08-04T03:26:29.658Z,4.10
2022-08-04T03:28:03.581Z,3.95
2022-08-04T03:29:36.525Z,4.18
2022-08-04T03:30:59.654Z,3.88
2022-08-04T03:32:33.814Z,4.00
2022-08-04T03:33:57.440Z,4.05
2022-08-04T03:35:38.087Z,3.90
2022-08-04T03:37:17.116Z,4.68
2022-08-04T03:38:43.972Z,4.03
2022-08-04T03:40:32.692Z,4.30
2022-08-04T03:42:04.022Z,4.35
2022-08-04T03:43:57.887Z,3.72
2022-08-04T03:45:34.610Z,4.55
2022-08-04T03:47:26.097Z,4.75
2022-08-04T03:48:53.037Z,4.60
2022-08-04T03:50:31.050Z,5.15
2022-08-04T03:51:57.353Z,4.40
2022-08-04T03:53:33.474Z,4.03
2022-08-04T03:54:54.884Z,4.32
2022-08-04T03:56:36.034Z,4.43
2022-08-04T03:57:54.294Z,4.65
2022-08-04T03:59:35.691Z,4.72
2022-08-04T04:00:46.647Z,4.35
2022-08-04T04:02:40.642Z,4.43
2022-08-04T04:04:01.149Z,4.30
2022-08-04T04:06:00.114Z,4.32
2022-08-04T04:07:35.820Z,5.28
2022-08-04T04:09:20.784Z,6.93
2022-08-04T04:10:43.392Z,4.57
2022-08-04T04:12:16.297Z,4.53
2022-08-04T04:13:34.423Z,4.50
2022-08-04T04:14:56.090Z,5.05
2022-08-04T04:16:29.345Z,4.93
2022-08-04T04:18:02.273Z,4.47
2022-08-04T04:19:23.553Z,4.70
2022-08-04T04:20:40.169Z,4.00
2022-08-04T04:22:25.684Z,3.90
2022-08-04T04:23:58.016Z,4.25
2022-08-04T04:25:26.883Z,4.80
2022-08-04T04:26:40.523Z,3.75
2022-08-04T04:28:45.763Z,3.92
2022-08-04T04:29:59.180Z,4.90
2022-08-04T04:31:10.121Z,4.53
2022-08-04T04:32:23.309Z,4.30
2022-08-04T04:33:42.174Z,4.30
2022-08-04T04:34:57.143Z,4.75
2022-08-04T04:36:08.281Z,4.45
2022-08-04T04:37:49.011Z,4.68
2022-08-04T04:40:25.558Z,4.40
2022-08-04T04:42:03.236Z,4.47
2022-08-04T04:43:16.661Z,4.53
2022-08-04T04:44:47.157Z,4.78
2022-08-04T04:45:56.557Z,4.78
2022-08-04T04:47:09.232Z,5.88
2022-08-04T04:48:18.882Z,5.35
2022-08-04T04:49:29.137Z,5.13
2022-08-04T04:50:43.749Z,4.50
2022-08-04T04:51:50.184Z,4.78
2022-08-04T04:53:03.942Z,4.47
2022-08-04T04:54:13.952Z,4.70
2022-08-04T04:55:22.677Z,4.00
2022-08-04T04:56:32.166Z,4.57
2022-08-04T04:57:53.990Z,4.55
2022-08-04T04:58:59.966Z,4.20
2022-08-04T05:00:06.173Z,3.85
2022-08-04T05:01:32.670Z,4.25
2022-08-04T05:03:00.448Z,3.70
2022-08-04T05:04:19.308Z,4.15
2022-08-04T05:05:59.655Z,4.10
2022-08-04T05:07:22.116Z,3.88
2022-08-04T05:09:00.471Z,4.40
2022-08-04T05:10:14.219Z,3.97
2022-08-04T05:11:39.841Z,3.78
2022-08-04T05:14:35.131Z,4.45
2022-08-04T05:14:41.431Z,3.90
2022-08-04T05:15:47.847Z,4.00
2022-08-04T05:16:59.277Z,4.55
2022-08-04T05:18:04.380Z,4.10
2022-08-04T05:19:18.552Z,3.95
2022-08-04T05:20:23.966Z,3.33
2022-08-04T05:21:39.136Z,3.25
2022-08-04T05:22:49.027Z,3.90
2022-08-04T05:23:57.924Z,4.22
2022-08-04T05:25:09.632Z,4.38
2022-08-04T05:26:15.380Z,3.58
2022-08-04T05:27:21.963Z,3.80
2022-08-04T05:28:28.714Z,3.95
2022-08-04T05:29:36.459Z,3.60
2022-08-04T05:30:48.659Z,3.55
2022-08-04T05:31:55.488Z,3.90
2022-08-04T05:33:03.695Z,3.40
2022-08-04T05:34:09.567Z,3.40
2022-08-04T05:35:15.941Z,3.67
2022-08-04T05:36:42.303Z,4.05
2022-08-04T05:37:48.400Z,3.70
2022-08-04T05:39:07.182Z,4.18
2022-08-04T05:40:12.906Z,3.90
2022-08-04T05:41:16.654Z,3.28
2022-08-04T05:42:19.664Z,3.83
2022-08-04T05:43:28.440Z,3.80
2022-08-04T05:44:33.344Z,3.67
2022-08-04T05:45:39.243Z,3.58
2022-08-04T05:46:42.840Z,3.40
2022-08-04T05:47:46.712Z,3.70
2022-08-04T05:48:49.715Z,3.55
2022-08-04T05:50:01.164Z,4.00
2022-08-04T05:51:05.724Z,3.33
2022-08-04T05:52:11.301Z,3.95
2022-08-04T05:53:15.346Z,4.30
2022-08-04T05:54:21.931Z,4.30
2022-08-04T05:55:48.718Z,4.72
2022-08-04T05:56:50.991Z,3.97
2022-08-04T05:57:55.782Z,3.50
2022-08-04T05:59:02.317Z,3.25
2022-08-04T06:00:31.689Z,3.30
2022-08-04T06:01:32.756Z,3.28
2022-08-04T06:02:58.122Z,3.60
2022-08-04T06:04:05.744Z,3.53
2022-08-04T06:05:15.958Z,3.22
2022-08-04T06:06:19.866Z,3.72
2022-08-04T06:07:23.285Z,3.65
2022-08-04T06:08:25.885Z,3.42
2022-08-04T06:09:29.666Z,3.65
2022-08-04T06:10:34.558Z,4.45
2022-08-04T06:12:00.709Z,3.78
2022-08-04T06:13:07.093Z,3.60
2022-08-04T06:14:15.722Z,3.60
2022-08-04T06:15:21.363Z,4.10
2022-08-04T06:16:35.904Z,3.47
2022-08-04T06:19:57.098Z,4.03
2022-08-04T06:19:59.392Z,3.67
2022-08-04T06:20:39.880Z,3.80
2022-08-04T06:21:56.694Z,3.60
2022-08-04T06:23:02.484Z,3.95
2022-08-04T06:24:10.752Z,3.85
2022-08-04T06:25:19.137Z,3.47
2022-08-04T06:26:23.173Z,3.95
2022-08-04T06:27:26.847Z,3.58
2022-08-04T06:28:31.372Z,3.42
2022-08-04T06:29:51.797Z,4.28
2022-08-04T06:32:27.132Z,3.80
2022-08-04T06:32:34.783Z,3.78
2022-08-04T06:33:54.830Z,3.25
2022-08-04T06:35:01.920Z,3.05
2022-08-04T06:36:07.645Z,4.13
2022-08-04T06:37:10.712Z,3.92
2022-08-04T06:38:14.439Z,3.80
2022-08-04T06:39:18.741Z,3.35
2022-08-04T06:40:31.992Z,3.45
2022-08-04T06:41:35.836Z,3.20
2022-08-04T06:42:59.331Z,3.40
2022-08-04T06:44:05.033Z,3.35
2022-08-04T06:45:11.929Z,2.97
2022-08-04T06:46:15.467Z,3.35
2022-08-04T06:47:21.404Z,4.07
2022-08-04T06:48:33.312Z,3.65
2022-08-04T06:49:54.997Z,3.45
2022-08-04T06:51:31.860Z,3.60
2022-08-04T06:52:25.074Z,3.28
2022-08-04T06:53:28.681Z,3.50
2022-08-04T06:54:31.120Z,3.22
2022-08-04T06:55:35.539Z,3.35
2022-08-04T06:56:41.627Z,4.10
2022-08-04T06:57:45.951Z,3.90
2022-08-04T06:58:51.544Z,3.67
2022-08-04T06:59:58.170Z,3.60
2022-08-04T07:01:04.171Z,4.13
2022-08-04T07:02:07.738Z,3.65
2022-08-04T07:03:12.149Z,3.72
2022-08-04T07:04:14.872Z,3.42
2022-08-04T07:05:19.129Z,3.83
2022-08-04T07:06:22.502Z,3.50
2022-08-04T07:07:37.229Z,3.80
2022-08-04T07:08:50.928Z,3.70
2022-08-04T07:09:53.710Z,3.20
2022-08-04T07:10:58.651Z,3.25
2022-08-04T07:12:02.779Z,3.38
2022-08-04T07:13:07.510Z,3.97
2022-08-04T07:14:11.286Z,3.22
2022-08-04T07:15:14.546Z,3.53
2022-08-04T07:16:20.084Z,3.30
2022-08-04T07:17:23.817Z,3.53
2022-08-04T07:18:32.950Z,3.33
2022-08-04T07:19:36.540Z,3.05
2022-08-04T07:20:43.045Z,3.35
2022-08-04T07:22:16.835Z,3.17
2022-08-04T07:23:12.059Z,3.08
2022-08-04T07:24:17.479Z,3.75
2022-08-04T07:25:22.185Z,3.28
2022-08-04T07:26:44.928Z,3.55
2022-08-04T07:27:49.356Z,3.72
2022-08-04T07:28:52.675Z,3.70
2022-08-04T07:29:56.059Z,3.10
2022-08-04T07:30:59.843Z,3.60
2022-08-04T07:32:04.626Z,3.17
2022-08-04T07:33:09.076Z,3.53
2022-08-04T07:34:21.469Z,3.28
2022-08-04T07:36:05.458Z,3.40
2022-08-04T07:36:55.209Z,3.00
2022-08-04T07:37:58.402Z,3.10
2022-08-04T07:39:02.040Z,2.90
2022-08-04T07:40:06.488Z,2.65
2022-08-04T07:42:33.932Z,2.95
2022-08-04T07:43:36.982Z,3.70
2022-08-04T07:44:40.209Z,3.67
2022-08-04T07:45:43.248Z,3.30
2022-08-04T07:46:47.495Z,2.90
2022-08-04T07:48:05.245Z,2.75
2022-08-04T07:49:09.475Z,3.20
2022-08-04T07:50:13.001Z,3.35
2022-08-04T07:51:17.503Z,3.30
2022-08-04T07:52:21.176Z,3.40
2022-08-04T07:53:54.186Z,3.50
2022-08-04T07:54:49.250Z,3.20
2022-08-04T07:55:52.400Z,3.42
2022-08-04T07:56:56.406Z,3.60
2022-08-04T07:57:58.606Z,3.92
2022-08-04T07:59:02.414Z,3.28
2022-08-04T08:00:06.446Z,3.47
2022-08-04T08:01:15.667Z,2.97
2022-08-04T08:02:20.536Z,3.83
2022-08-04T08:03:25.743Z,3.35
2022-08-04T08:04:29.328Z,3.25
2022-08-04T08:05:32.514Z,3.15
2022-08-04T08:06:42.695Z,3.35
2022-08-04T08:07:51.020Z,3.50
2022-08-04T08:08:59.521Z,2.78
2022-08-04T08:10:05.454Z,3.00
2022-08-04T08:12:36.766Z,3.30
2022-08-04T08:12:52.430Z,3.33
2022-08-04T08:13:55.269Z,2.83
2022-08-04T08:14:58.840Z,3.20
2022-08-04T08:16:02.901Z,2.80
2022-08-04T08:17:05.740Z,3.58
2022-08-04T08:18:09.002Z,3.15
2022-08-04T08:19:12.731Z,3.67
2022-08-04T08:20:16.028Z,3.10
2022-08-04T08:21:33.758Z,2.97
2022-08-04T08:22:36.807Z,3.00
2022-08-04T08:23:40.540Z,2.80
2022-08-04T08:24:42.807Z,2.90
2022-08-04T08:25:46.499Z,3.17
2022-08-04T08:26:49.961Z,2.97
2022-08-04T08:27:56.258Z,3.10
2022-08-04T08:29:00.157Z,3.03
2022-08-04T08:30:02.349Z,2.78
2022-08-04T08:31:07.286Z,2.55
2022-08-04T08:32:14.126Z,2.63
2022-08-04T08:33:17.487Z,2.92
2022-08-04T08:34:28.097Z,2.60
2022-08-04T08:35:39.785Z,2.92
2022-08-04T08:37:00.783Z,2.80
2022-08-04T08:38:05.235Z,2.83
2022-08-04T08:39:13.158Z,2.20
2022-08-04T08:40:32.348Z,2.80
2022-08-04T08:42:16.255Z,2.72
2022-08-04T08:44:05.968Z,2.72
2022-08-04T08:45:34.297Z,3.08
2022-08-04T08:46:57.988Z,2.50
2022-08-04T08:48:38.556Z,2.50
2022-08-04T08:50:34.954Z,2.50
2022-08-04T08:51:56.924Z,3.22
2022-08-04T08:53:24.568Z,2.55
2022-08-04T08:54:47.606Z,2.80
2022-08-04T08:56:09.233Z,2.78
2022-08-04T08:57:23.736Z,2.45
2022-08-04T08:58:40.311Z,2.70
2022-08-04T09:00:02.316Z,2.55
2022-08-04T09:01:13.341Z,2.60
2022-08-04T09:02:40.683Z,3.15
2022-08-04T09:04:23.530Z,2.90
2022-08-04T09:05:44.145Z,3.78
2022-08-04T09:07:01.191Z,2.80
2022-08-04T09:08:21.398Z,2.45
2022-08-04T09:09:49.068Z,2.58
2022-08-04T09:10:59.964Z,2.55
2022-08-04T09:12:07.916Z,2.45
2022-08-04T09:13:17.769Z,2.75
2022-08-04T09:14:25.456Z,2.90
2022-08-04T09:15:37.451Z,3.08
2022-08-04T09:16:46.462Z,3.42
2022-08-04T09:17:53.477Z,3.17
2022-08-04T09:19:06.145Z,2.92
2022-08-04T09:20:16.273Z,2.80
2022-08-04T09:21:27.030Z,2.63
2022-08-04T09:22:39.996Z,2.88
2022-08-04T09:23:53.341Z,2.92
2022-08-04T09:25:04.738Z,2.70
2022-08-04T09:26:14.204Z,2.67
2022-08-04T09:27:20.215Z,2.58
2022-08-04T09:28:52.184Z,2.28
2022-08-04T09:29:54.564Z,2.35
2022-08-04T09:31:05.671Z,2.45
2022-08-04T09:32:17.137Z,2.25
2022-08-04T09:33:44.816Z,2.70
2022-08-04T09:35:06.063Z,2.30
2022-08-04T09:36:28.709Z,2.50
2022-08-04T09:37:46.147Z,2.45
2022-08-04T09:39:00.371Z,2.75
2022-08-04T09:40:08.919Z,2.85
2022-08-04T09:41:49.201Z,2.30
2022-08-04T09:43:21.528Z,2.60
2022-08-04T09:44:50.368Z,2.60
2022-08-04T09:46:02.396Z,2.50
2022-08-04T09:47:13.842Z,2.25
2022-08-04T09:48:26.310Z,2.30
2022-08-04T09:49:36.835Z,2.50
2022-08-04T09:50:40.635Z,2.53
2022-08-04T09:51:59.599Z,2.30
2022-08-04T09:53:14.803Z,2.30
2022-08-04T09:54:30.915Z,2.58
2022-08-04T09:55:53.832Z,2.65
2022-08-04T09:57:08.997Z,2.72
2022-08-04T09:58:22.828Z,2.30
2022-08-04T09:59:28.033Z,3.30
2022-08-04T10:00:40.870Z,2.83
2022-08-04T10:01:46.950Z,2.70
2022-08-04T10:03:02.862Z,3.10
2022-08-04T10:04:10.008Z,2.72
2022-08-04T10:05:15.920Z,2.63
2022-08-04T10:07:00.040Z,2.38
2022-08-04T10:08:23.932Z,2.70
2022-08-04T10:09:45.028Z,2.80
2022-08-04T10:10:56.747Z,2.60
2022-08-04T10:12:17.863Z,2.92
2022-08-04T10:13:29.790Z,2.78
2022-08-04T10:14:47.088Z,2.97
2022-08-04T10:16:07.299Z,2.42
2022-08-04T10:17:32.827Z,2.25
2022-08-04T10:18:46.819Z,2.80
2022-08-04T10:20:03.356Z,2.50
2022-08-04T10:21:15.666Z,2.40
2022-08-04T10:22:29.566Z,2.60
2022-08-04T10:23:55.359Z,2.65
2022-08-04T10:25:39.974Z,2.70
2022-08-04T10:26:43.958Z,2.30
2022-08-04T10:27:54.181Z,2.65
2022-08-04T10:29:04.334Z,2.90
2022-08-04T10:30:12.134Z,3.00
2022-08-04T10:31:21.914Z,2.30
2022-08-04T10:32:29.478Z,2.58
2022-08-04T10:33:35.387Z,2.60
2022-08-04T10:34:44.482Z,2.50
2022-08-04T10:35:52.182Z,2.90
2022-08-04T10:37:14.103Z,2.92
2022-08-04T10:38:26.789Z,3.00
2022-08-04T10:40:08.248Z,2.88
2022-08-04T10:41:18.621Z,2.70
2022-08-04T10:43:42.549Z,2.70
2022-08-04T10:45:01.376Z,2.70
2022-08-04T10:46:09.552Z,2.70
2022-08-04T10:47:16.718Z,2.40
2022-08-04T10:48:34.983Z,2.80
2022-08-04T10:49:44.007Z,2.63
2022-08-04T10:51:01.472Z,2.50
2022-08-04T10:52:09.820Z,2.65
2022-08-04T10:53:17.489Z,2.92
2022-08-04T10:54:27.526Z,2.67
2022-08-04T10:56:06.986Z,2.78
2022-08-04T10:57:08.080Z,2.80
2022-08-04T10:58:17.468Z,2.63
2022-08-04T10:59:29.881Z,2.67
2022-08-04T11:00:35.987Z,2.53
2022-08-04T11:02:00.596Z,2.72
2022-08-04T11:03:12.397Z,2.45
2022-08-04T11:04:27.130Z,2.40
2022-08-04T11:05:43.678Z,2.90
2022-08-04T11:06:47.582Z,2.50
2022-08-04T11:07:55.486Z,2.50
2022-08-04T11:09:00.229Z,2.60
2022-08-04T11:10:02.853Z,3.10
2022-08-04T11:11:13.987Z,2.80
2022-08-04T11:12:19.765Z,2.80
2022-08-04T11:13:29.970Z,2.72
2022-08-04T11:14:39.906Z,2.80
2022-08-04T11:15:49.129Z,2.40
2022-08-04T11:16:55.895Z,2.78
2022-08-04T11:18:06.811Z,2.47
2022-08-04T11:19:45.376Z,2.58
2022-08-04T11:20:56.938Z,2.60
2022-08-04T11:22:10.085Z,2.70
2022-08-04T11:23:16.482Z,2.63
2022-08-04T11:24:26.431Z,2.67
2022-08-04T11:25:33.799Z,2.70
2022-08-04T11:26:49.392Z,2.45
2022-08-04T11:28:01.158Z,2.65
2022-08-04T11:29:15.124Z,2.60
2022-08-04T11:30:18.310Z,2.70
2022-08-04T11:31:26.591Z,2.90
2022-08-04T11:32:37.181Z,2.70
2022-08-04T11:33:48.650Z,2.60
2022-08-04T11:34:58.998Z,2.63
2022-08-04T11:37:15.173Z,2.47
2022-08-04T11:38:24.181Z,2.40
2022-08-04T11:39:37.560Z,2.30
2022-08-04T11:41:02.349Z,2.53
2022-08-04T11:42:16.518Z,2.70
2022-08-04T11:44:00.987Z,2.50
2022-08-04T11:44:51.744Z,2.58
2022-08-04T11:45:58.349Z,2.60
2022-08-04T11:47:05.703Z,2.30
2022-08-04T11:48:11.642Z,2.30
2022-08-04T11:49:30.438Z,2.60
2022-08-04T11:50:38.983Z,2.22
2022-08-04T11:51:44.819Z,2.22
2022-08-04T11:52:50.299Z,2.10
2022-08-04T11:53:52.549Z,1.95
2022-08-04T11:54:57.166Z,2.28
2022-08-04T11:56:09.376Z,2.10
2022-08-04T11:57:14.487Z,2.15
2022-08-04T11:58:17.176Z,1.90
2022-08-04T11:59:23.305Z,2.10
2022-08-04T12:00:30.536Z,2.00
2022-08-04T12:01:43.396Z,2.10
2022-08-04T12:03:05.604Z,1.95
2022-08-04T12:04:18.219Z,2.17
2022-08-04T12:05:36.624Z,1.92
2022-08-04T12:06:56.627Z,2.08
2022-08-04T12:08:27.573Z,2.08
2022-08-04T12:09:37.388Z,2.10
2022-08-04T12:10:51.379Z,1.95
2022-08-04T12:12:03.589Z,2.00
2022-08-04T12:13:17.351Z,2.20
2022-08-04T12:14:29.433Z,2.45
2022-08-04T12:15:37.320Z,2.08
2022-08-04T12:16:48.400Z,2.10
2022-08-04T12:17:59.233Z,2.20
2022-08-04T12:19:17.241Z,2.28
2022-08-04T12:20:38.355Z,2.28
2022-08-04T12:21:50.369Z,2.10
2022-08-04T12:22:57.202Z,2.00
2022-08-04T12:24:06.445Z,2.17
2022-08-04T12:25:13.213Z,2.47
2022-08-04T12:26:23.569Z,2.03
2022-08-04T12:29:08.128Z,2.10
2022-08-04T12:30:58.336Z,1.92
2022-08-04T12:31:29.620Z,2.30
2022-08-04T12:32:38.697Z,2.25
2022-08-04T12:34:04.469Z,2.25
2022-08-04T12:35:15.949Z,2.13
2022-08-04T12:36:22.258Z,2.00
2022-08-04T12:37:38.947Z,2.50
2022-08-04T12:38:49.202Z,2.20
2022-08-04T12:40:27.486Z,2.17
2022-08-04T12:41:35.621Z,2.30
2022-08-04T12:42:59.591Z,2.00
2022-08-04T12:44:36.175Z,2.00
2022-08-04T12:45:35.173Z,2.15
2022-08-04T12:46:38.209Z,2.20
2022-08-04T12:47:43.934Z,2.20
2022-08-04T12:48:48.258Z,2.03
2022-08-04T12:50:00.151Z,2.40
2022-08-04T12:51:08.849Z,2.50
2022-08-04T12:53:01.574Z,2.15
2022-08-04T12:54:00.015Z,2.30
2022-08-04T12:55:05.325Z,2.30
2022-08-04T12:56:11.306Z,2.40
2022-08-04T12:57:17.020Z,2.30
2022-08-04T12:58:42.143Z,2.20
2022-08-04T12:59:56.928Z,2.30
2022-08-04T13:01:02.281Z,2.38
2022-08-04T13:02:28.961Z,2.40
2022-08-04T13:03:38.710Z,2.33
2022-08-04T13:04:51.528Z,2.30
2022-08-04T13:05:55.005Z,2.30
2022-08-04T13:07:02.519Z,2.60
2022-08-04T13:08:07.585Z,2.22
2022-08-04T13:09:18.399Z,2.83
2022-08-04T13:10:22.996Z,2.35
2022-08-04T13:11:38.500Z,2.80
2022-08-04T13:12:44.755Z,2.63
2022-08-04T13:14:10.775Z,2.60
2022-08-04T13:15:21.797Z,2.40
2022-08-04T13:16:30.009Z,2.45
2022-08-04T13:17:47.037Z,2.50
2022-08-04T13:18:52.588Z,2.50
2022-08-04T13:19:56.294Z,2.50
2022-08-04T13:21:20.608Z,2.53
2022-08-04T13:22:27.363Z,2.00
2022-08-04T13:24:09.209Z,2.33
2022-08-04T13:25:18.103Z,2.83
2022-08-04T13:26:43.429Z,2.05
2022-08-04T13:27:46.786Z,2.20
2022-08-04T13:28:54.351Z,2.20
2022-08-04T13:30:03.266Z,1.98
2022-08-04T13:31:11.563Z,2.10
2022-08-04T13:32:18.552Z,2.08
2022-08-04T13:33:23.729Z,2.33
2022-08-04T13:34:28.465Z,2.15
2022-08-04T13:35:55.130Z,2.10
2022-08-04T13:36:57.123Z,2.00
2022-08-04T13:38:00.412Z,2.28
2022-08-04T13:39:08.956Z,2.40
2022-08-04T13:40:14.276Z,2.35
2022-08-04T13:41:19.042Z,2.25
2022-08-04T13:42:23.544Z,2.20
2022-08-04T13:44:15.363Z,2.58
2022-08-04T13:44:56.953Z,2.00
2022-08-04T13:46:02.868Z,2.30
2022-08-04T13:47:22.666Z,2.13
2022-08-04T13:48:32.139Z,2.05
2022-08-04T13:51:05.065Z,2.22
2022-08-04T13:52:11.456Z,2.10
2022-08-04T13:53:22.016Z,2.30
2022-08-04T13:54:25.194Z,2.08
2022-08-04T13:55:32.775Z,1.95
2022-08-04T13:56:40.255Z,2.10
2022-08-04T13:57:46.515Z,2.25
2022-08-04T13:58:55.707Z,2.30
2022-08-04T14:00:03.003Z,2.33
2022-08-04T14:01:16.186Z,2.72
2022-08-04T14:02:35.137Z,2.40
2022-08-04T14:03:54.402Z,2.08
2022-08-04T14:05:03.053Z,2.28
2022-08-04T14:06:11.659Z,2.60
2022-08-04T14:07:21.058Z,2.13
2022-08-04T14:08:31.320Z,2.30
2022-08-04T14:10:40.245Z,2.00
2022-08-04T14:12:07.129Z,2.65
2022-08-04T14:13:09.379Z,2.13
2022-08-04T14:14:20.224Z,2.22
2022-08-04T14:16:02.231Z,2.50
2022-08-04T14:17:01.048Z,2.10
2022-08-04T14:18:22.610Z,2.13
2022-08-04T14:19:29.362Z,1.92
2022-08-04T14:20:34.418Z,2.30
2022-08-04T14:21:37.941Z,2.47
2022-08-04T14:22:40.149Z,2.70
2022-08-04T14:23:50.633Z,2.90
2022-08-04T14:24:56.340Z,2.70
2022-08-04T14:25:59.540Z,2.42
2022-08-04T14:27:02.728Z,3.13
2022-08-04T14:28:04.935Z,2.97
2022-08-04T14:29:27.891Z,2.88
2022-08-04T14:30:35.420Z,2.90
2022-08-04T14:31:54.425Z,2.80
2022-08-04T14:33:59.669Z,3.17
2022-08-04T14:34:31.062Z,2.90
2022-08-04T14:35:50.133Z,3.30
2022-08-04T14:37:16.945Z,2.90
2022-08-04T14:38:17.861Z,2.83
2022-08-04T14:39:38.009Z,3.20
2022-08-04T14:40:42.146Z,3.63
2022-08-04T14:41:46.903Z,3.10
2022-08-04T14:42:54.533Z,3.50
2022-08-04T14:44:02.375Z,3.75
2022-08-04T14:45:07.032Z,3.50
2022-08-04T14:46:12.564Z,3.55
2022-08-04T14:47:15.749Z,3.90
2022-08-04T14:48:17.915Z,3.90
2022-08-04T14:49:21.893Z,3.70
2022-08-04T14:50:36.710Z,4.07
2022-08-04T14:51:42.467Z,3.78
2022-08-04T14:52:44.672Z,4.20
2022-08-04T14:53:49.274Z,4.25
2022-08-04T14:54:52.637Z,3.85
2022-08-04T14:55:57.999Z,4.00
2022-08-04T14:57:05.872Z,3.70
2022-08-04T14:58:34.748Z,3.75
2022-08-04T14:59:58.960Z,3.90
2022-08-04T15:01:10.070Z,3.80
2022-08-04T15:02:15.658Z,3.88
2022-08-04T15:03:20.149Z,4.13
2022-08-04T15:04:25.846Z,4.20
2022-08-04T15:06:01.732Z,4.05
2022-08-04T15:06:54.683Z,4.10
2022-08-04T15:07:57.086Z,3.45
2022-08-04T15:09:02.289Z,4.10
2022-08-04T15:10:05.344Z,4.20
2022-08-04T15:11:09.245Z,3.42
2022-08-04T15:12:11.527Z,3.83
2022-08-04T15:13:14.983Z,4.03
2022-08-04T15:14:36.312Z,3.72
2022-08-04T15:15:42.988Z,3.92
2022-08-04T15:17:12.461Z,3.83
2022-08-04T15:18:30.673Z,4.07
2022-08-04T15:19:34.014Z,3.60
2022-08-04T15:20:38.860Z,3.60
2022-08-04T15:21:42.683Z,4.00
2022-08-04T15:22:46.529Z,3.80
2022-08-04T15:23:52.934Z,3.40
2022-08-04T15:24:56.437Z,3.83
2022-08-04T15:26:03.738Z,3.40
2022-08-04T15:27:12.052Z,3.88
2022-08-04T15:28:24.977Z,3.70
2022-08-04T15:30:00.199Z,4.28
2022-08-04T15:31:10.299Z,4.03
2022-08-04T15:32:33.655Z,4.20
2022-08-04T15:33:41.206Z,3.92
2022-08-04T15:34:48.203Z,4.07
2022-08-04T15:35:58.223Z,4.20
2022-08-04T15:37:07.531Z,3.72
2022-08-04T15:38:17.776Z,4.30
2022-08-04T15:39:32.854Z,4.22
2022-08-04T15:40:44.968Z,3.83
2022-08-04T15:41:56.553Z,3.92
2022-08-04T15:43:17.118Z,3.80
2022-08-04T15:46:41.490Z,3.72
2022-08-04T15:47:14.600Z,3.42
2022-08-04T15:48:26.872Z,3.50
2022-08-04T15:49:30.236Z,3.92
2022-08-04T15:50:32.739Z,3.83
2022-08-04T15:51:35.929Z,3.63
2022-08-04T15:53:10.541Z,3.20
2022-08-04T15:54:32.747Z,4.03
2022-08-04T15:55:36.736Z,3.63
2022-08-04T15:56:48.393Z,4.82
2022-08-04T15:58:06.941Z,4.07
2022-08-04T15:59:09.292Z,3.63
2022-08-04T16:00:15.196Z,4.07
2022-08-04T16:01:18.708Z,3.38
2022-08-04T16:02:45.922Z,3.28
2022-08-04T16:03:55.320Z,3.53
2022-08-04T16:05:41.773Z,3.30
2022-08-04T16:06:44.430Z,3.30
2022-08-04T16:07:58.331Z,4.13
2022-08-04T16:09:02.940Z,3.38
2022-08-04T16:10:41.326Z,4.95
2022-08-04T16:11:44.527Z,4.30
2022-08-04T16:12:58.257Z,3.85
2022-08-04T16:14:11.619Z,3.42
2022-08-04T16:15:40.498Z,3.72
2022-08-04T16:16:49.134Z,3.88
2022-08-04T16:17:52.330Z,3.30
2022-08-04T16:18:55.702Z,4.00
2022-08-04T16:20:08.577Z,4.35
2022-08-04T16:21:29.404Z,4.45
2022-08-04T16:22:38.100Z,3.47
2022-08-04T16:24:22.011Z,3.40
2022-08-04T16:25:46.610Z,3.35
2022-08-04T16:26:57.236Z,3.80
2022-08-04T16:28:00.597Z,3.30
2022-08-04T16:29:03.678Z,3.50